Time;durP1;ratioP1;P1;durP2;ratioP2;P2;SDS_P1;SDS_P2;PMS_P1;PMS_P2;Temp;Humidity;BMP_temperature;BMP_pressure;BME280_temperature;BME280_humidity;BME280_pressure;Samples;Min_cycle;Max_cycle;Signal;HPM_P1;HPM_P2
2024/01/22 00:00:35;;;;;;;6.13;2.97;;;7.20;99.90;;;;;;5006611;28;20042;-36
2024/01/22 00:03:02;;;;;;;6.50;3.10;;;7.20;99.90;;;;;;5007985;28;20049;-35
2024/01/22 00:05:27;;;;;;;6.50;2.67;;;7.30;99.90;;;;;;5007067;28;20100;-35
2024/01/22 00:07:53;;;;;;;11.07;3.00;;;7.30;99.90;;;;;;5005264;28;20054;-35
2024/01/22 00:10:19;;;;;;;8.73;3.35;;;7.30;99.90;;;;;;5005934;28;20067;-35
2024/01/22 00:12:45;;;;;;;7.22;3.08;;;7.30;99.90;;;;;;5006034;28;20049;-34
2024/01/22 00:15:10;;;;;;;6.07;2.40;;;7.40;99.90;;;;;;4995303;28;20468;-35
2024/01/22 00:17:36;;;;;;;5.53;2.90;;;7.40;99.90;;;;;;4986402;28;20046;-34
2024/01/22 00:20:02;;;;;;;5.82;3.03;;;7.40;99.90;;;;;;5002708;28;20053;-35
2024/01/22 00:22:28;;;;;;;7.45;3.10;;;7.50;99.90;;;;;;4990045;28;20412;-35
2024/01/22 00:24:54;;;;;;;6.68;2.97;;;7.50;99.90;;;;;;4983896;28;20045;-35
2024/01/22 00:27:19;;;;;;;5.68;2.53;;;7.50;99.90;;;;;;4985338;28;20050;-35
2024/01/22 00:29:45;;;;;;;6.65;2.75;;;7.60;99.90;;;;;;4984383;28;20070;-35
2024/01/22 00:32:11;;;;;;;5.50;3.20;;;7.60;99.90;;;;;;4985694;28;20061;-35
2024/01/22 00:34:37;;;;;;;6.10;2.83;;;7.60;99.90;;;;;;5004929;28;20056;-36
2024/01/22 00:37:03;;;;;;;6.35;2.25;;;7.70;99.90;;;;;;4984111;28;20136;-45
2024/01/22 00:39:29;;;;;;;3.95;1.98;;;7.80;99.90;;;;;;4976701;28;20100;-36
2024/01/22 00:41:56;;;;;;;5.50;2.17;;;7.80;99.90;;;;;;5003104;28;20053;-35
2024/01/22 00:44:22;;;;;;;7.35;2.67;;;7.90;99.90;;;;;;5003663;28;20058;-36
2024/01/22 00:46:48;;;;;;;8.32;2.60;;;8.10;99.90;;;;;;5005311;28;20056;-35
2024/01/22 00:49:14;;;;;;;5.82;1.95;;;8.10;99.90;;;;;;4995757;28;20057;-35
2024/01/22 00:51:40;;;;;;;3.78;1.88;;;8.10;99.90;;;;;;5004102;28;20053;-36
2024/01/22 00:54:06;;;;;;;4.30;2.08;;;8.30;99.90;;;;;;5001992;28;20041;-35
2024/01/22 00:56:33;;;;;;;4.00;1.90;;;8.40;99.90;;;;;;5004447;28;20491;-36
2024/01/22 00:58:59;;;;;;;4.60;1.92;;;8.40;99.90;;;;;;5002662;28;20524;-35
2024/01/22 01:01:24;;;;;;;3.67;2.03;;;8.50;99.90;;;;;;5004131;28;20514;-35
2024/01/22 01:03:50;;;;;;;3.55;2.08;;;8.50;99.90;;;;;;5005326;28;20050;-35
2024/01/22 01:06:16;;;;;;;4.55;1.90;;;8.50;99.90;;;;;;5006987;28;20073;-35
2024/01/22 01:08:42;;;;;;;5.60;2.35;;;8.60;99.90;;;;;;5002567;28;20054;-35
2024/01/22 01:11:07;;;;;;;4.03;1.95;;;8.60;99.90;;;;;;5003272;28;20058;-35
2024/01/22 01:13:33;;;;;;;5.10;1.75;;;8.60;99.90;;;;;;5005810;28;20049;-36
2024/01/22 01:15:59;;;;;;;3.67;2.03;;;8.60;99.90;;;;;;5003481;28;20513;-35
2024/01/22 01:18:25;;;;;;;5.18;1.90;;;8.60;99.90;;;;;;5004658;28;20059;-35
2024/01/22 01:20:51;;;;;;;5.25;2.08;;;8.60;99.90;;;;;;5003812;28;20049;-33
2024/01/22 01:23:16;;;;;;;3.28;1.45;;;8.60;99.90;;;;;;4993464;28;20045;-36
2024/01/22 01:25:42;;;;;;;6.18;1.88;;;8.60;99.90;;;;;;5009408;28;20081;-36
2024/01/22 01:28:08;;;;;;;5.35;2.00;;;8.50;99.90;;;;;;5009079;28;20077;-36
2024/01/22 01:30:33;;;;;;;5.07;1.92;;;8.50;99.90;;;;;;5007841;28;20049;-35
2024/01/22 01:32:59;;;;;;;4.60;1.50;;;8.60;99.90;;;;;;5005040;28;20571;-34
2024/01/22 01:35:25;;;;;;;3.55;1.75;;;8.60;99.90;;;;;;5009025;28;20505;-35
2024/01/22 01:37:52;;;;;;;3.35;1.48;;;8.60;99.90;;;;;;5005505;28;20049;-35
2024/01/22 01:40:18;;;;;;;4.57;2.05;;;8.60;99.90;;;;;;5006896;28;20108;-35
2024/01/22 01:42:44;;;;;;;4.97;1.77;;;8.60;99.90;;;;;;5000854;28;20050;-35
2024/01/22 01:45:14;;;;;;;6.28;2.00;;;8.60;99.90;;;;;;5005523;28;20080;-35
2024/01/22 01:47:49;;;;;;;4.43;1.65;;;8.70;99.90;;;;;;5002481;28;20060;-35
2024/01/22 01:50:16;;;;;;;4.10;1.85;;;8.60;99.90;;;;;;5004806;28;20050;-35
2024/01/22 01:52:43;;;;;;;5.70;3.15;;;8.60;99.90;;;;;;5006397;28;20038;-35
2024/01/22 01:55:10;;;;;;;4.38;2.15;;;8.60;99.90;;;;;;5004062;28;20067;-35
2024/01/22 01:57:39;;;;;;;6.65;2.05;;;8.70;99.90;;;;;;5007536;28;20054;-35
2024/01/22 02:00:06;;;;;;;3.88;1.55;;;8.60;99.90;;;;;;4988300;28;20046;-34
2024/01/22 02:02:32;;;;;;;6.18;2.08;;;8.60;99.90;;;;;;5000253;28;20065;-34
2024/01/22 02:05:01;;;;;;;4.63;1.80;;;8.60;99.90;;;;;;5004159;28;20061;-34
2024/01/22 02:07:26;;;;;;;4.28;1.52;;;8.50;99.90;;;;;;5009328;28;20459;-34
2024/01/22 02:09:53;;;;;;;4.53;2.03;;;8.50;99.90;;;;;;5007959;28;20158;-34
2024/01/22 02:12:20;;;;;;;4.53;1.80;;;8.50;99.90;;;;;;5007763;28;20495;-34
2024/01/22 02:14:46;;;;;;;4.93;1.52;;;8.60;99.90;;;;;;5007616;28;20061;-34
2024/01/22 02:17:13;;;;;;;2.28;1.10;;;8.50;99.90;;;;;;5006921;28;20050;-35
2024/01/22 02:19:39;;;;;;;7.47;2.35;;;8.60;99.90;;;;;;5005457;28;20045;-36
2024/01/22 02:22:05;;;;;;;5.15;2.08;;;8.60;99.90;;;;;;5005817;28;20050;-34
2024/01/22 02:24:31;;;;;;;6.22;1.55;;;8.70;99.90;;;;;;5008085;28;20049;-35
2024/01/22 02:26:57;;;;;;;3.47;1.65;;;8.70;99.90;;;;;;5006779;28;20058;-35
2024/01/22 02:29:22;;;;;;;5.65;1.65;;;8.70;99.90;;;;;;5003175;28;20050;-35
2024/01/22 02:31:52;;;;;;;4.60;1.75;;;8.70;99.90;;;;;;4984269;28;20050;-36
2024/01/22 02:34:18;;;;;;;4.75;1.38;;;8.70;99.90;;;;;;4984977;28;20614;-35
2024/01/22 02:36:45;;;;;;;5.70;1.63;;;8.60;99.90;;;;;;4986022;28;20262;-36
2024/01/22 02:39:13;;;;;;;5.60;2.10;;;8.60;99.90;;;;;;4991509;28;20053;-36
2024/01/22 02:41:40;;;;;;;4.50;1.70;;;8.60;99.90;;;;;;5008455;28;20063;-36
2024/01/22 02:44:06;;;;;;;4.28;1.73;;;8.60;99.90;;;;;;5007156;28;20148;-35
2024/01/22 02:46:32;;;;;;;6.15;1.65;;;8.70;99.90;;;;;;5001288;28;20050;-38
2024/01/22 02:48:58;;;;;;;4.00;1.58;;;8.60;99.90;;;;;;4992093;28;20073;-36
2024/01/22 02:51:24;;;;;;;3.58;1.50;;;8.70;99.90;;;;;;5004422;28;20760;-37
2024/01/22 02:53:51;;;;;;;5.90;1.90;;;8.70;99.90;;;;;;5009183;28;20519;-36
2024/01/22 02:56:18;;;;;;;5.35;2.05;;;8.70;99.90;;;;;;5006925;28;20129;-36
2024/01/22 02:58:43;;;;;;;2.38;1.30;;;8.70;99.90;;;;;;5006402;28;20415;-36
2024/01/22 03:01:09;;;;;;;3.38;1.60;;;8.70;99.90;;;;;;5007976;28;20042;-35
2024/01/22 03:03:35;;;;;;;4.88;1.95;;;8.70;99.90;;;;;;5007505;28;20131;-34
2024/01/22 03:06:01;;;;;;;3.90;1.38;;;8.70;99.90;;;;;;5006021;28;20049;-35
2024/01/22 03:08:27;;;;;;;4.68;1.85;;;8.70;99.90;;;;;;5001656;28;20132;-34
2024/01/22 03:10:52;;;;;;;5.90;1.85;;;8.70;99.90;;;;;;5006287;28;20113;-34
2024/01/22 03:13:18;;;;;;;3.22;1.35;;;8.80;99.90;;;;;;5006780;28;20910;-34
2024/01/22 03:15:44;;;;;;;3.90;1.50;;;8.80;99.90;;;;;;5006850;28;20064;-34
2024/01/22 03:18:10;;;;;;;3.25;1.52;;;8.80;99.90;;;;;;5004870;28;20387;-35
2024/01/22 03:20:37;;;;;;;3.42;1.20;;;8.80;99.90;;;;;;5005116;28;20176;-36
2024/01/22 03:23:04;;;;;;;4.60;1.38;;;8.70;99.90;;;;;;5006032;28;20172;-35
2024/01/22 03:25:30;;;;;;;2.75;1.17;;;8.70;99.90;;;;;;5004184;28;20506;-35
2024/01/22 03:27:55;;;;;;;4.55;1.63;;;8.80;99.90;;;;;;5002710;28;20116;-36
2024/01/22 03:30:21;;;;;;;3.97;1.33;;;8.70;99.90;;;;;;5005203;28;20138;-35
2024/01/22 03:32:47;;;;;;;3.80;1.50;;;8.80;99.90;;;;;;4988416;28;20050;-36
2024/01/22 03:35:12;;;;;;;3.55;1.20;;;8.80;99.90;;;;;;5004487;28;20200;-36
2024/01/22 03:37:40;;;;;;;3.35;1.05;;;8.70;99.90;;;;;;4984455;28;20808;-35
2024/01/22 03:40:07;;;;;;;4.53;1.60;;;8.70;99.90;;;;;;5002607;28;20128;-35
2024/01/22 03:42:33;;;;;;;2.95;1.40;;;8.70;99.90;;;;;;5006692;28;20058;-35
2024/01/22 03:44:59;;;;;;;6.53;1.80;;;8.70;99.90;;;;;;5005910;28;20141;-34
2024/01/22 03:47:27;;;;;;;4.03;1.13;;;8.70;99.90;;;;;;5003817;28;20156;-33
2024/01/22 03:49:53;;;;;;;3.35;1.35;;;8.70;99.90;;;;;;4993510;28;20092;-34
2024/01/22 03:52:18;;;;;;;3.95;1.13;;;8.80;99.90;;;;;;4994833;28;20136;-34
2024/01/22 03:54:44;;;;;;;5.68;1.77;;;8.80;99.90;;;;;;5002452;28;20042;-34
2024/01/22 03:57:10;;;;;;;1.70;0.98;;;8.80;99.90;;;;;;5002116;28;20060;-33
2024/01/22 03:59:39;;;;;;;3.05;1.38;;;8.80;99.90;;;;;;5006689;28;20455;-34
2024/01/22 04:02:04;;;;;;;3.25;1.30;;;8.80;99.90;;;;;;5006470;28;20057;-34
2024/01/22 04:04:30;;;;;;;3.05;1.13;;;8.80;99.90;;;;;;5000552;28;20068;-34
2024/01/22 04:06:56;;;;;;;3.38;1.20;;;8.90;99.90;;;;;;5000134;28;20579;-34
2024/01/22 04:09:21;;;;;;;5.78;1.52;;;8.80;99.90;;;;;;4980061;28;20046;-34
2024/01/22 04:11:47;;;;;;;4.35;1.48;;;8.90;99.90;;;;;;5004664;28;20103;-34
2024/01/22 04:14:13;;;;;;;2.58;1.30;;;8.90;99.90;;;;;;5003607;28;20392;-34
2024/01/22 04:16:39;;;;;;;3.75;1.33;;;8.90;99.90;;;;;;5004118;28;20056;-34
2024/01/22 04:19:05;;;;;;;2.83;1.13;;;8.90;99.90;;;;;;4998493;28;20042;-34
2024/01/22 04:21:31;;;;;;;4.93;1.77;;;8.90;99.90;;;;;;5003428;28;20054;-34
2024/01/22 04:23:57;;;;;;;2.83;1.10;;;9.00;99.90;;;;;;5005074;28;20081;-34
2024/01/22 04:26:23;;;;;;;2.90;1.10;;;8.90;99.90;;;;;;5002920;28;20193;-34
2024/01/22 04:28:49;;;;;;;3.40;1.17;;;9.00;99.90;;;;;;5003231;28;20062;-34
2024/01/22 04:31:15;;;;;;;2.25;1.13;;;9.10;99.90;;;;;;4991520;28;20169;-34
2024/01/22 04:33:45;;;;;;;1.73;0.95;;;9.10;99.90;;;;;;4991792;28;20133;-34
2024/01/22 04:36:10;;;;;;;2.55;1.35;;;9.10;99.90;;;;;;4984791;28;20046;-34
2024/01/22 04:38:36;;;;;;;3.30;1.30;;;9.10;99.90;;;;;;4979843;28;20060;-34
2024/01/22 04:41:02;;;;;;;4.30;1.20;;;9.20;99.90;;;;;;5002201;28;20042;-34
2024/01/22 04:43:28;;;;;;;2.08;0.90;;;9.30;99.90;;;;;;5005474;28;20743;-34
2024/01/22 04:45:54;;;;;;;2.53;1.10;;;9.30;99.90;;;;;;5003336;28;20069;-34
2024/01/22 04:48:19;;;;;;;2.28;0.95;;;9.30;99.90;;;;;;5008687;28;20054;-34
2024/01/22 04:50:45;;;;;;;3.15;1.00;;;9.40;99.90;;;;;;5006027;28;20132;-34
2024/01/22 04:53:11;;;;;;;2.28;0.85;;;9.50;99.90;;;;;;5001081;28;20061;-34
2024/01/22 04:55:37;;;;;;;2.00;0.90;;;9.50;99.90;;;;;;5004502;28;20058;-35
2024/01/22 04:58:03;;;;;;;1.63;0.70;;;9.60;99.90;;;;;;5005258;28;20058;-35
2024/01/22 05:00:28;;;;;;;2.35;0.90;;;9.70;99.90;;;;;;5005410;28;20049;-35
2024/01/22 05:02:54;;;;;;;2.92;0.80;;;9.70;99.90;;;;;;5004511;28;20073;-34
2024/01/22 05:05:20;;;;;;;2.03;0.80;;;9.80;99.90;;;;;;4987720;28;20054;-34
2024/01/22 05:07:46;;;;;;;1.30;0.60;;;9.90;99.90;;;;;;4989372;28;20053;-34
2024/01/22 05:10:13;;;;;;;2.05;0.73;;;9.90;99.90;;;;;;5002712;28;20050;-34
2024/01/22 05:12:40;;;;;;;1.40;0.85;;;10.10;99.90;;;;;;5004824;28;21638;-34
2024/01/22 05:15:06;;;;;;;1.13;0.50;;;10.10;99.90;;;;;;5004325;28;20129;-34
2024/01/22 05:17:32;;;;;;;2.13;1.38;;;10.20;99.90;;;;;;4996578;28;20554;-35
2024/01/22 05:19:59;;;;;;;1.35;0.50;;;10.30;99.90;;;;;;5006486;28;20045;-34
2024/01/22 05:22:25;;;;;;;2.13;0.55;;;10.40;99.90;;;;;;5000237;28;20103;-34
2024/01/22 05:24:50;;;;;;;0.80;0.40;;;10.50;99.90;;;;;;4984116;28;20448;-34
2024/01/22 05:27:16;;;;;;;0.60;0.50;;;10.60;99.90;;;;;;4983457;28;20144;-34
2024/01/22 05:29:42;;;;;;;2.75;0.57;;;10.60;99.90;;;;;;4982711;28;20066;-34
2024/01/22 05:32:08;;;;;;;0.80;0.40;;;10.70;99.90;;;;;;4984651;28;20547;-34
2024/01/22 05:34:34;;;;;;;2.08;0.40;;;10.70;99.90;;;;;;4984505;28;20050;-34
2024/01/22 05:37:00;;;;;;;2.20;0.30;;;10.70;99.90;;;;;;5003005;28;20140;-35
2024/01/22 05:39:27;;;;;;;1.55;0.30;;;10.80;99.90;;;;;;5000908;28;20054;-34
2024/01/22 05:41:56;;;;;;;1.52;0.30;;;10.90;99.90;;;;;;5004042;28;20050;-34
2024/01/22 05:44:22;;;;;;;0.50;0.20;;;10.90;99.90;;;;;;5002299;28;20443;-35
2024/01/22 05:46:47;;;;;;;2.97;0.40;;;10.90;99.90;;;;;;4976978;28;20180;-34
2024/01/22 05:49:13;;;;;;;4.68;0.52;;;10.90;99.90;;;;;;5004095;28;20045;-34
2024/01/22 05:51:39;;;;;;;1.60;0.82;;;10.90;99.90;;;;;;5001662;28;20515;-34
2024/01/22 05:54:04;;;;;;;3.45;0.50;;;10.80;99.90;;;;;;5004317;28;20450;-35
2024/01/22 05:56:31;;;;;;;1.88;0.30;;;10.80;99.90;;;;;;4978471;28;20050;-34
2024/01/22 05:58:57;;;;;;;0.98;0.45;;;10.80;99.90;;;;;;4990316;28;20154;-34
2024/01/22 06:01:25;;;;;;;1.20;0.30;;;10.80;99.90;;;;;;5001303;28;20492;-35
2024/01/22 06:03:52;;;;;;;1.25;0.30;;;10.70;99.90;;;;;;5003684;28;20137;-35
2024/01/22 06:06:18;;;;;;;0.80;0.40;;;10.70;99.90;;;;;;5003080;28;20136;-35
2024/01/22 06:08:46;;;;;;;0.98;0.30;;;10.70;99.90;;;;;;5010399;28;20057;-34
2024/01/22 06:11:12;;;;;;;3.50;0.90;;;10.70;99.90;;;;;;5005922;28;20099;-36
2024/01/22 06:13:39;;;;;;;1.25;0.40;;;10.60;99.90;;;;;;5008440;28;21495;-35
2024/01/22 06:16:09;;;;;;;1.83;0.45;;;10.60;99.90;;;;;;5007850;28;20045;-34
2024/01/22 06:18:39;;;;;;;2.38;0.40;;;10.50;99.90;;;;;;5009057;28;20054;-36
2024/01/22 06:21:06;;;;;;;3.80;0.40;;;10.50;99.90;;;;;;5010208;28;20052;-36
2024/01/22 06:23:32;;;;;;;1.35;0.43;;;10.50;99.90;;;;;;4999395;28;20053;-34
2024/01/22 06:25:58;;;;;;;1.10;0.40;;;10.40;99.90;;;;;;4997421;28;20149;-35
2024/01/22 06:28:25;;;;;;;1.50;0.50;;;10.40;99.90;;;;;;4998728;28;20139;-34
2024/01/22 06:30:51;;;;;;;2.75;0.80;;;10.50;99.90;;;;;;5002804;28;20065;-34
2024/01/22 06:33:18;;;;;;;2.80;0.70;;;10.40;99.90;;;;;;5010316;28;20507;-35
2024/01/22 06:35:44;;;;;;;4.13;0.70;;;10.30;99.90;;;;;;5006624;28;20046;-35
2024/01/22 06:38:10;;;;;;;4.10;1.00;;;10.30;99.90;;;;;;5007100;28;20073;-34
2024/01/22 06:40:36;;;;;;;7.20;0.90;;;10.20;99.90;;;;;;5007334;28;20057;-36
2024/01/22 06:43:01;;;;;;;7.65;1.17;;;10.20;99.90;;;;;;5007410;28;20527;-35
2024/01/22 06:45:27;;;;;;;7.68;1.08;;;10.20;99.90;;;;;;5003109;28;20057;-37
2024/01/22 06:47:53;;;;;;;10.45;1.38;;;10.20;99.90;;;;;;5008753;28;20061;-35
2024/01/22 06:50:18;;;;;;;12.20;1.30;;;10.40;99.90;;;;;;4993063;28;20066;-35
2024/01/22 06:52:47;;;;;;;6.18;1.08;;;10.40;99.90;;;;;;4971150;28;20042;-34
2024/01/22 06:55:13;;;;;;;8.70;1.25;;;10.50;99.90;;;;;;5005550;28;20050;-34
2024/01/22 06:57:39;;;;;;;13.30;1.83;;;10.50;99.90;;;;;;4988763;28;20070;-35
2024/01/22 07:00:09;;;;;;;4.70;0.98;;;10.60;99.90;;;;;;4988906;28;20082;-35
2024/01/22 07:02:37;;;;;;;6.07;0.93;;;10.70;99.90;;;;;;5006116;28;20549;-35
2024/01/22 07:05:04;;;;;;;8.55;1.42;;;10.80;99.90;;;;;;4990376;28;20057;-36
2024/01/22 07:07:30;;;;;;;10.55;1.80;;;10.70;99.90;;;;;;4991517;28;20111;-36
2024/01/22 07:09:56;;;;;;;10.60;2.15;;;10.70;99.90;;;;;;5005620;28;20053;-35
2024/01/22 07:12:23;;;;;;;9.02;1.83;;;10.70;99.90;;;;;;4990896;28;20049;-35
2024/01/22 07:14:49;;;;;;;9.07;1.40;;;10.70;99.90;;;;;;5005776;28;20061;-35
2024/01/22 07:17:21;;;;;;;10.93;2.45;;;10.60;99.90;;;;;;5004305;28;20049;-35
2024/01/22 07:19:47;;;;;;;9.65;1.85;;;10.70;99.90;;;;;;5001745;28;20050;-35
2024/01/22 07:22:13;;;;;;;11.18;2.10;;;10.70;99.90;;;;;;5004359;28;20136;-34
2024/01/22 07:24:39;;;;;;;11.38;1.90;;;10.60;99.90;;;;;;4992175;28;20530;-34
2024/01/22 07:27:05;;;;;;;13.25;1.98;;;10.70;99.90;;;;;;5003077;28;20063;-34
2024/01/22 07:29:31;;;;;;;11.25;2.42;;;10.70;99.90;;;;;;4996767;28;20046;-35
2024/01/22 07:31:57;;;;;;;15.40;2.05;;;10.60;99.90;;;;;;4997455;28;20050;-33
2024/01/22 07:34:23;;;;;;;11.98;2.22;;;10.60;99.90;;;;;;5005956;28;20050;-36
2024/01/22 07:36:49;;;;;;;14.63;1.65;;;10.60;99.90;;;;;;5004728;28;20519;-35
2024/01/22 07:39:15;;;;;;;9.50;1.70;;;10.50;99.90;;;;;;5001291;28;20682;-34
2024/01/22 07:41:41;;;;;;;11.35;2.15;;;10.50;99.90;;;;;;5005426;28;20112;-34
2024/01/22 07:44:07;;;;;;;14.68;1.95;;;10.40;99.90;;;;;;5003685;28;20053;-35
2024/01/22 07:46:34;;;;;;;7.85;1.40;;;10.30;99.90;;;;;;5001167;28;20056;-35
2024/01/22 07:49:00;;;;;;;12.35;2.30;;;10.30;99.90;;;;;;5001262;28;20061;-35
2024/01/22 07:51:26;;;;;;;8.80;1.70;;;10.20;99.90;;;;;;5001827;28;20087;-35
2024/01/22 07:53:52;;;;;;;14.38;2.25;;;10.30;99.90;;;;;;5001632;28;20073;-33
2024/01/22 07:56:17;;;;;;;11.77;1.90;;;10.20;99.90;;;;;;5003648;28;20652;-34
2024/01/22 07:58:44;;;;;;;10.07;2.20;;;10.20;99.90;;;;;;5003081;28;20041;-34
2024/01/22 08:01:10;;;;;;;12.15;2.38;;;10.20;99.90;;;;;;4966593;28;20132;-34
2024/01/22 08:03:36;;;;;;;9.45;1.75;;;10.20;99.90;;;;;;5008536;28;20180;-34
2024/01/22 08:06:01;;;;;;;14.32;1.98;;;10.10;99.90;;;;;;5007984;28;20054;-34
2024/01/22 08:08:28;;;;;;;9.57;1.85;;;10.10;99.90;;;;;;5005204;28;20136;-36
2024/01/22 08:10:54;;;;;;;11.10;2.13;;;10.10;99.90;;;;;;5005233;28;20064;-36
2024/01/22 08:13:21;;;;;;;12.15;2.28;;;10.10;99.90;;;;;;4975035;28;20140;-34
2024/01/22 08:15:50;;;;;;;11.10;2.10;;;10.10;99.90;;;;;;5005145;28;20062;-34
2024/01/22 08:18:16;;;;;;;13.32;2.50;;;10.00;99.90;;;;;;4992834;28;20208;-34
2024/01/22 08:20:42;;;;;;;12.98;2.60;;;10.10;99.90;;;;;;4978656;28;20614;-35
2024/01/22 08:23:08;;;;;;;14.38;2.42;;;10.00;99.90;;;;;;4981155;28;20371;-35
2024/01/22 08:25:34;;;;;;;16.05;2.80;;;10.00;99.90;;;;;;4980864;28;20050;-35
2024/01/22 08:28:00;;;;;;;18.15;3.00;;;10.00;99.90;;;;;;5002494;28;20537;-37
2024/01/22 08:30:27;;;;;;;10.80;2.53;;;10.00;99.90;;;;;;4983939;28;20064;-35
2024/01/22 08:32:53;;;;;;;15.52;2.65;;;9.90;99.90;;;;;;5003042;28;20388;-38
2024/01/22 08:35:21;;;;;;;14.05;2.38;;;9.90;99.90;;;;;;4999659;28;20038;-37
2024/01/22 08:37:50;;;;;;;18.40;3.35;;;9.90;99.90;;;;;;4970946;28;20096;-36
2024/01/22 08:40:19;;;;;;;19.75;2.80;;;9.80;99.90;;;;;;5002987;28;20049;-36
2024/01/22 08:42:49;;;;;;;23.20;3.10;;;9.90;99.90;;;;;;5003577;28;20046;-37
2024/01/22 08:45:15;;;;;;;19.30;3.28;;;9.80;99.90;;;;;;5001275;28;20049;-37
2024/01/22 08:47:44;;;;;;;16.52;3.55;;;9.90;99.90;;;;;;4988238;28;20514;-35
2024/01/22 08:50:11;;;;;;;17.40;3.30;;;9.90;99.90;;;;;;5005859;28;20042;-36
2024/01/22 08:52:37;;;;;;;22.63;3.15;;;9.80;99.90;;;;;;5006021;28;20046;-42
2024/01/22 08:55:05;;;;;;;16.25;3.22;;;9.80;99.90;;;;;;5004146;28;21592;-36
2024/01/22 08:57:31;;;;;;;29.33;4.90;;;9.90;99.90;;;;;;5004204;28;20120;-35
2024/01/22 08:59:58;;;;;;;25.70;3.45;;;9.80;99.90;;;;;;4986620;28;20076;-36
2024/01/22 09:02:24;;;;;;;19.85;3.45;;;9.80;99.90;;;;;;5003917;28;20578;-36
2024/01/22 09:04:50;;;;;;;29.90;4.07;;;9.70;99.90;;;;;;5006501;28;20064;-38
2024/01/22 09:07:16;;;;;;;25.75;4.65;;;9.70;99.90;;;;;;4986170;28;20045;-36
2024/01/22 09:09:42;;;;;;;26.85;4.70;;;9.60;99.90;;;;;;5005809;28;20184;-35
2024/01/22 09:12:08;;;;;;;19.38;3.70;;;9.60;99.90;;;;;;5003580;28;20060;-35
2024/01/22 09:14:33;;;;;;;19.75;3.92;;;9.60;99.90;;;;;;5003986;28;20065;-36
2024/01/22 09:16:59;;;;;;;23.23;4.78;;;9.60;99.90;;;;;;5002831;28;20053;-35
2024/01/22 09:19:25;;;;;;;31.33;4.53;;;9.60;99.90;;;;;;5002925;28;20050;-35
2024/01/22 09:21:51;;;;;;;23.60;3.60;;;9.60;99.90;;;;;;5007602;28;20099;-35
2024/01/22 09:24:17;;;;;;;20.05;4.22;;;9.60;99.90;;;;;;5004221;28;20050;-35
2024/01/22 09:26:42;;;;;;;27.45;5.82;;;9.60;99.90;;;;;;5004208;28;20401;-36
2024/01/22 09:29:08;;;;;;;25.58;5.03;;;9.60;99.90;;;;;;5003856;28;20058;-35
2024/01/22 09:31:35;;;;;;;23.00;4.70;;;9.70;99.90;;;;;;4996557;28;20082;-35
2024/01/22 09:34:00;;;;;;;20.30;3.75;;;9.70;99.90;;;;;;4994197;28;20431;-35
2024/01/22 09:36:26;;;;;;;27.13;5.68;;;9.70;99.90;;;;;;4988049;28;20045;-35
2024/01/22 09:38:52;;;;;;;30.95;5.40;;;9.60;99.90;;;;;;5002598;28;20046;-35
2024/01/22 09:41:18;;;;;;;34.90;6.25;;;9.60;99.90;;;;;;5003678;28;20396;-36
2024/01/22 09:43:45;;;;;;;35.63;6.72;;;9.60;99.90;;;;;;5008441;28;20046;-35
2024/01/22 09:46:12;;;;;;;26.52;5.13;;;9.60;99.90;;;;;;5009362;28;20066;-36
2024/01/22 09:48:37;;;;;;;32.05;4.68;;;9.60;99.90;;;;;;5009356;28;20062;-36
2024/01/22 09:51:06;;;;;;;26.88;4.22;;;9.60;99.90;;;;;;5011445;28;20048;-35
2024/01/22 09:53:35;;;;;;;34.05;5.43;;;9.60;99.90;;;;;;5001132;28;20049;-35
2024/01/22 09:56:04;;;;;;;20.10;3.97;;;9.60;99.90;;;;;;5006965;28;20053;-36
2024/01/22 09:58:35;;;;;;;26.40;4.78;;;9.60;99.90;;;;;;5008829;28;20101;-35
2024/01/22 10:01:02;;;;;;;24.08;4.60;;;9.60;99.90;;;;;;5003954;28;20491;-36
2024/01/22 10:03:32;;;;;;;27.63;5.18;;;9.60;99.90;;;;;;5006280;28;20144;-36
2024/01/22 10:05:59;;;;;;;26.38;4.70;;;9.60;99.90;;;;;;4990191;28;20061;-35
2024/01/22 10:08:25;;;;;;;27.15;3.90;;;9.60;99.90;;;;;;5006272;28;20068;-40
2024/01/22 10:10:50;;;;;;;31.10;4.72;;;9.70;99.90;;;;;;4998096;28;20161;-35
2024/01/22 10:13:17;;;;;;;30.90;4.30;;;9.70;99.90;;;;;;5006399;28;20045;-37
2024/01/22 10:15:44;;;;;;;31.00;4.97;;;9.70;99.90;;;;;;5003572;28;20054;-35
2024/01/22 10:18:15;;;;;;;32.47;5.55;;;9.70;99.90;;;;;;5003726;28;20517;-36
2024/01/22 10:20:43;;;;;;;28.65;6.18;;;9.70;99.90;;;;;;5001513;28;21626;-35
2024/01/22 10:23:10;;;;;;;27.42;4.68;;;9.70;99.90;;;;;;5004008;28;20215;-36
2024/01/22 10:25:36;;;;;;;23.92;4.75;;;9.70;99.90;;;;;;5006111;28;20057;-35
2024/01/22 10:28:16;;;;;;;29.33;4.13;;;9.60;99.90;;;;;;5002804;28;20112;-35
2024/01/22 10:30:44;;;;;;;23.02;5.07;;;9.60;99.90;;;;;;5005285;28;20083;-37
2024/01/22 10:33:18;;;;;;;28.98;5.30;;;9.60;99.90;;;;;;5003208;28;20384;-36
2024/01/22 10:35:45;;;;;;;25.50;4.47;;;9.60;99.90;;;;;;5007533;28;20487;-35
2024/01/22 10:38:16;;;;;;;20.25;5.18;;;9.50;99.90;;;;;;4997417;28;20487;-35
2024/01/22 10:40:45;;;;;;;28.90;4.53;;;9.50;99.90;;;;;;4999101;28;20488;-35
2024/01/22 10:43:26;;;;;;;26.25;4.82;;;9.50;99.90;;;;;;4992369;28;20097;-36
2024/01/22 10:45:54;;;;;;;28.10;5.25;;;9.40;99.90;;;;;;4981782;28;20780;-35
2024/01/22 10:48:23;;;;;;;22.63;4.03;;;9.40;99.90;;;;;;5005302;28;20136;-35
2024/01/22 10:50:51;;;;;;;25.83;4.70;;;9.30;99.90;;;;;;5003490;28;20483;-35
2024/01/22 10:53:19;;;;;;;29.95;5.03;;;9.30;99.90;;;;;;4986561;28;20423;-35
2024/01/22 10:55:58;;;;;;;25.88;4.72;;;9.30;99.90;;;;;;5007524;28;20047;-35
2024/01/22 10:58:31;;;;;;;20.70;4.38;;;9.30;99.90;;;;;;5000763;28;21139;-35
2024/01/22 11:01:01;;;;;;;30.75;5.10;;;9.30;99.90;;;;;;5002498;28;20483;-34
2024/01/22 11:03:28;;;;;;;23.13;4.10;;;9.30;99.90;;;;;;5007206;28;20060;-35
2024/01/22 11:05:59;;;;;;;25.83;4.35;;;9.40;99.90;;;;;;5003514;28;20045;-36
2024/01/22 11:08:28;;;;;;;23.83;4.68;;;9.60;99.90;;;;;;5004066;28;20141;-37
2024/01/22 11:10:55;;;;;;;23.92;4.43;;;9.70;99.90;;;;;;5006082;28;20048;-36
2024/01/22 11:13:21;;;;;;;22.25;4.00;;;9.70;99.90;;;;;;4993873;28;20072;-35
2024/01/22 11:15:47;;;;;;;28.38;4.70;;;9.80;99.90;;;;;;5006763;28;20058;-35
2024/01/22 11:18:13;;;;;;;23.77;4.45;;;9.90;99.90;;;;;;4998629;28;20081;-35
2024/01/22 11:20:39;;;;;;;18.33;3.45;;;9.90;99.90;;;;;;5007319;28;20050;-35
2024/01/22 11:23:09;;;;;;;25.40;4.80;;;10.00;99.90;;;;;;4994819;28;20049;-36
2024/01/22 11:25:35;;;;;;;22.85;3.58;;;10.00;99.90;;;;;;5007168;28;20054;-36
2024/01/22 11:28:02;;;;;;;21.85;4.20;;;10.10;99.90;;;;;;5007832;28;20160;-36
2024/01/22 11:30:31;;;;;;;22.58;3.55;;;10.10;99.90;;;;;;4996391;28;20129;-35
2024/01/22 11:32:57;;;;;;;20.83;3.90;;;10.10;99.90;;;;;;5005143;28;20125;-35
2024/01/22 11:35:35;;;;;;;22.75;3.80;;;10.20;99.90;;;;;;5004366;28;20041;-35
2024/01/22 11:38:03;;;;;;;17.25;3.00;;;10.20;99.90;;;;;;4992840;28;20058;-35
2024/01/22 11:40:55;;;;;;;17.27;3.22;;;10.20;99.90;;;;;;5004603;28;20054;-35
2024/01/22 11:43:22;;;;;;;20.23;3.13;;;10.20;99.90;;;;;;5003686;28;20046;-35
2024/01/22 11:45:56;;;;;;;16.92;3.40;;;10.30;99.90;;;;;;5003193;28;20495;-35
2024/01/22 11:48:23;;;;;;;18.70;2.65;;;10.30;99.90;;;;;;4995300;28;20050;-35
2024/01/22 11:51:05;;;;;;;18.30;3.45;;;10.40;99.90;;;;;;4981283;28;20112;-35
2024/01/22 11:53:31;;;;;;;21.95;3.10;;;10.40;99.90;;;;;;5001364;28;20055;-35
2024/01/22 11:56:03;;;;;;;12.65;3.05;;;10.40;99.90;;;;;;4977869;28;20050;-35
2024/01/22 11:58:33;;;;;;;18.50;3.28;;;10.50;99.90;;;;;;5002615;28;20053;-35
2024/01/22 12:01:00;;;;;;;13.30;2.90;;;10.50;99.90;;;;;;4997264;28;20048;-36
2024/01/22 12:03:27;;;;;;;13.23;2.30;;;10.60;99.90;;;;;;5002111;28;20199;-35
2024/01/22 12:06:07;;;;;;;16.42;3.40;;;10.60;99.90;;;;;;5002471;28;20048;-35
2024/01/22 12:08:34;;;;;;;17.95;2.17;;;10.70;99.90;;;;;;5000311;28;20054;-35
2024/01/22 12:11:08;;;;;;;22.50;2.95;;;10.80;99.90;;;;;;5005360;28;20057;-35
2024/01/22 12:13:36;;;;;;;17.15;2.13;;;10.90;99.90;;;;;;5002065;28;20113;-35
2024/01/22 12:16:03;;;;;;;12.82;2.78;;;10.80;99.90;;;;;;5003252;28;20053;-35
2024/01/22 12:18:28;;;;;;;17.40;2.50;;;10.60;99.90;;;;;;5003505;28;20056;-35
2024/01/22 12:20:54;;;;;;;20.42;3.72;;;10.40;99.90;;;;;;5003956;28;20078;-35
2024/01/22 12:23:36;;;;;;;14.93;2.60;;;10.50;99.90;;;;;;4968569;28;20050;-35
2024/01/22 12:26:02;;;;;;;16.80;3.42;;;10.70;99.90;;;;;;5004126;28;20072;-35
2024/01/22 12:28:28;;;;;;;17.20;3.03;;;10.90;99.90;;;;;;5003248;28;20050;-35
2024/01/22 12:31:01;;;;;;;15.63;2.60;;;11.00;99.90;;;;;;5004516;28;20140;-35
2024/01/22 12:33:29;;;;;;;13.85;3.08;;;11.20;99.90;;;;;;5001527;28;20077;-35
2024/01/22 12:36:08;;;;;;;13.98;2.25;;;11.30;99.90;;;;;;4994366;28;20555;-35
2024/01/22 12:38:46;;;;;;;17.40;2.90;;;11.20;99.90;;;;;;4993541;28;20111;-35
2024/01/22 12:41:14;;;;;;;13.20;2.53;;;11.40;99.90;;;;;;5006583;28;20495;-36
2024/01/22 12:43:40;;;;;;;14.00;1.85;;;11.30;99.90;;;;;;5002826;28;20064;-35
2024/01/22 12:46:10;;;;;;;13.05;2.25;;;11.50;99.90;;;;;;5002207;28;20507;-35